Time;durP1;ratioP1;P1;durP2;ratioP2;P2;SDS_P1;SDS_P2;PMS_P1;PMS_P2;Temp;Humidity;BMP_temperature;BMP_pressure;BME280_temperature;BME280_humidity;BME280_pressure;Samples;Min_cycle;Max_cycle;Signal;HPM_P1;HPM_P2
2021/07/05 00:00:59;;;;;;;7.91;5.33;;;;;;;21.84;69.77;99033.81;356625;147;857402;-59
2021/07/05 00:02:01;;;;;;;6.72;4.70;;;;;;;21.92;69.42;99038.57;359323;149;857973;-60
2021/07/05 00:03:03;;;;;;;8.45;5.37;;;;;;;21.96;69.14;99035.59;358996;150;864732;-60
2021/07/05 00:04:05;;;;;;;9.02;5.57;;;;;;;21.97;68.97;99034.64;357916;148;864683;-59
2021/07/05 00:05:07;;;;;;;9.28;6.11;;;;;;;21.96;68.94;99034.77;358563;148;857354;-59
2021/07/05 00:06:09;;;;;;;8.58;5.71;;;;;;;21.93;68.98;99038.45;360560;148;858216;-59
2021/07/05 00:07:11;;;;;;;7.55;6.30;;;;;;;21.87;69.11;99039.73;358344;148;857370;-59
2021/07/05 00:08:13;;;;;;;11.75;6.27;;;;;;;21.81;69.36;99034.03;359387;147;864843;-59
2021/07/05 00:09:15;;;;;;;7.33;6.46;;;;;;;21.74;69.52;99042.36;357963;147;857394;-60
2021/07/05 00:10:22;;;;;;;8.86;6.67;;;;;;;21.70;69.72;99037.40;357465;148;865050;-59
2021/07/05 00:11:24;;;;;;;9.68;7.21;;;;;;;21.65;69.86;99036.88;358099;147;859731;-59
2021/07/05 00:12:26;;;;;;;11.03;6.85;;;;;;;21.61;70.03;99044.12;356654;149;858290;-60
2021/07/05 00:13:27;;;;;;;9.09;5.95;;;;;;;21.55;70.15;99045.38;359021;150;857789;-60
2021/07/05 00:14:29;;;;;;;8.16;5.49;;;;;;;21.51;70.42;99041.27;357341;148;865538;-60
2021/07/05 00:15:32;;;;;;;6.59;4.81;;;;;;;21.48;70.59;99045.91;357163;148;865612;-59
2021/07/05 00:16:37;;;;;;;8.24;5.09;;;;;;;21.49;70.77;99040.52;358376;150;858093;-60
2021/07/05 00:17:38;;;;;;;6.78;4.89;;;;;;;21.49;70.77;99051.06;359588;148;857433;-59
2021/07/05 00:18:40;;;;;;;7.59;5.49;;;;;;;21.52;70.80;99042.95;358272;147;864786;-59
2021/07/05 00:19:41;;;;;;;8.94;4.78;;;;;;;21.56;70.79;99044.42;356109;147;864899;-59
2021/07/05 00:20:44;;;;;;;5.29;4.77;;;;;;;21.62;70.65;99048.45;358847;148;864849;-59
2021/07/05 00:21:46;;;;;;;5.34;4.51;;;;;;;21.68;70.55;99047.20;358103;148;858526;-59
2021/07/05 00:22:48;;;;;;;10.03;4.92;;;;;;;21.74;70.37;99049.44;356405;148;859677;-60
2021/07/05 00:23:50;;;;;;;9.51;4.76;;;;;;;21.81;70.17;99049.84;359023;148;859462;-59
2021/07/05 00:24:52;;;;;;;8.09;4.64;;;;;;;21.88;70.05;99048.47;358245;148;859217;-59
2021/07/05 00:25:54;;;;;;;6.04;4.68;;;;;;;21.94;69.89;99045.40;358652;147;864844;-60
2021/07/05 00:26:56;;;;;;;9.69;5.24;;;;;;;21.99;69.68;99045.09;358073;148;866023;-59
2021/07/05 00:27:57;;;;;;;8.71;4.86;;;;;;;22.04;69.46;99043.80;358581;150;865014;-59
2021/07/05 00:28:59;;;;;;;8.72;5.46;;;;;;;22.07;69.22;99044.54;358572;147;867009;-60
2021/07/05 00:30:01;;;;;;;7.14;5.74;;;;;;;22.08;69.18;99048.86;359938;147;864744;-59
2021/07/05 00:31:04;;;;;;;8.73;5.79;;;;;;;22.05;69.15;99049.94;358652;150;864718;-59
2021/07/05 00:32:06;;;;;;;10.45;6.35;;;;;;;22.04;69.23;99046.44;359198;148;864947;-59
2021/07/05 00:33:08;;;;;;;9.90;6.16;;;;;;;22.04;69.24;99040.34;356160;147;865144;-58
2021/07/05 00:34:10;;;;;;;7.93;6.32;;;;;;;22.04;69.18;99040.34;357929;148;857256;-59
2021/07/05 00:35:12;;;;;;;11.31;6.39;;;;;;;22.01;69.13;99044.02;361746;149;857312;-59
2021/07/05 00:36:14;;;;;;;12.44;6.53;;;;;;;22.00;69.13;99037.06;358945;149;864855;-60
2021/07/05 00:37:16;;;;;;;11.16;7.19;;;;;;;21.96;69.11;99040.86;357160;147;859132;-59
2021/07/05 00:38:18;;;;;;;10.91;6.56;;;;;;;21.93;69.16;99041.08;359439;148;865857;-59
2021/07/05 00:39:20;;;;;;;12.22;6.51;;;;;;;21.88;69.32;99032.66;359739;147;866066;-59
2021/07/05 00:40:23;;;;;;;10.60;7.26;;;;;;;21.83;69.40;99032.99;359130;147;865134;-59
2021/07/05 00:41:29;;;;;;;9.37;6.73;;;;;;;21.74;69.63;99026.56;358409;149;857870;-59
2021/07/05 00:42:29;;;;;;;10.73;7.09;;;;;;;21.70;69.79;99037.40;357288;150;857063;-59
2021/07/05 00:43:31;;;;;;;11.06;7.64;;;;;;;21.65;70.09;99034.23;356687;148;865919;-59
2021/07/05 00:44:32;;;;;;;9.82;6.09;;;;;;;21.62;70.47;99045.81;361415;147;864842;-59
2021/07/05 00:45:34;;;;;;;9.04;5.48;;;;;;;21.62;70.47;99045.81;355227;150;857126;-60
2021/07/05 00:46:38;;;;;;;9.92;5.51;;;;;;;21.60;70.69;98995.03;360010;148;865295;-59
2021/07/05 00:47:40;;;;;;;6.13;4.79;;;;;;;21.60;70.69;98995.03;358777;147;859308;-60
2021/07/05 00:48:41;;;;;;;6.67;5.16;;;;;;;21.67;70.30;99027.08;358284;148;860265;-60
2021/07/05 00:49:43;;;;;;;7.47;5.11;;;;;;;21.70;70.20;99032.98;358405;149;867242;-59
2021/07/05 00:50:46;;;;;;;8.69;4.94;;;;;;;21.77;69.98;99033.42;357057;148;859031;-59
2021/07/05 00:51:48;;;;;;;8.29;5.51;;;;;;;21.84;69.81;99031.19;358577;147;859008;-59
2021/07/05 00:52:52;;;;;;;7.11;5.07;;;;;;;21.89;69.54;99024.66;359267;148;865695;-59
2021/07/05 00:53:54;;;;;;;6.58;5.52;;;;;;;21.96;69.38;99030.33;359051;149;858910;-60
2021/07/05 00:54:56;;;;;;;6.77;5.55;;;;;;;21.99;69.16;99029.28;358769;148;857854;-60
2021/07/05 00:55:58;;;;;;;8.61;6.20;;;;;;;21.98;69.10;99027.59;359845;148;866246;-59
2021/07/05 00:57:00;;;;;;;9.29;6.16;;;;;;;21.93;69.11;99027.08;358551;150;866983;-59
2021/07/05 00:58:02;;;;;;;8.59;6.30;;;;;;;21.86;69.21;99038.05;357931;147;860421;-60
2021/07/05 00:59:04;;;;;;;9.73;6.26;;;;;;;21.86;69.21;99038.05;358258;147;858698;-59
2021/07/05 01:00:10;;;;;;;8.07;6.18;;;;;;;21.76;69.75;99017.70;359386;149;865883;-59
2021/07/05 01:01:11;;;;;;;9.14;6.28;;;;;;;21.69;69.94;99019.91;357596;148;865061;-58
2021/07/05 01:02:14;;;;;;;9.50;6.71;;;;;;;21.64;70.16;99017.61;359272;147;865140;-59
2021/07/05 01:03:15;;;;;;;9.62;6.01;;;;;;;21.58;70.31;99016.19;360428;147;866830;-59
2021/07/05 01:04:17;;;;;;;7.55;5.37;;;;;;;21.53;70.52;99018.30;355408;148;857468;-59
2021/07/05 01:05:19;;;;;;;8.95;4.74;;;;;;;21.51;70.73;99016.73;358357;147;864822;-58
2021/07/05 01:06:22;;;;;;;9.79;4.99;;;;;;;21.49;70.91;99010.73;358210;147;864981;-58
2021/07/05 01:07:24;;;;;;;8.73;5.24;;;;;;;;;;358448;149;857917;-58
2021/07/05 01:08:26;;;;;;;8.25;4.88;;;;;;;;;;357611;147;865857;-59
2021/07/05 01:09:27;;;;;;;7.51;5.66;;;;;;;;;;357731;147;859108;-58
2021/07/05 01:10:30;;;;;;;10.06;5.67;;;;;;;;;;358919;147;858131;-58
2021/07/05 01:11:32;;;;;;;9.41;5.74;;;;;;;;;;359257;150;857330;-57
2021/07/05 01:12:34;;;;;;;8.91;6.16;;;;;;;;;;356232;147;865810;-59
2021/07/05 01:13:35;;;;;;;13.12;6.36;;;;;;;;;;357813;148;858648;-58
2021/07/05 01:14:37;;;;;;;9.38;6.09;;;;;;;;;;359388;149;858919;-58
2021/07/05 01:15:39;;;;;;;8.14;6.64;;;;;;;;;;357632;148;866676;-59
2021/07/05 01:16:41;;;;;;;8.44;6.35;;;;;;;;;;356761;148;866801;-58
2021/07/05 01:17:42;;;;;;;8.65;6.56;;;;;;;;;;355578;148;857861;-58
2021/07/05 01:18:44;;;;;;;10.62;6.86;;;;;;;;;;358206;148;857311;-59
2021/07/05 01:19:47;;;;;;;11.87;6.59;;;;;;;;;;358032;147;858305;-59
2021/07/05 01:20:49;;;;;;;7.67;6.22;;;;;;;;;;357127;148;857305;-59
2021/07/05 01:21:51;;;;;;;10.43;6.52;;;;;;;;;;358507;150;858876;-58
2021/07/05 01:22:52;;;;;;;13.31;6.94;;;;;;;;;;358669;148;857351;-59
2021/07/05 01:23:54;;;;;;;9.74;6.76;;;;;;;;;;358179;147;857213;-59
2021/07/05 01:24:55;;;;;;;7.59;6.05;;;;;;;;;;358782;149;857275;-60
2021/07/05 01:25:57;;;;;;;7.99;6.77;;;;;;;;;;359055;148;857329;-59
2021/07/05 01:26:58;;;;;;;7.14;6.43;;;;;;;;;;358167;148;857257;-59
2021/07/05 01:28:00;;;;;;;9.59;5.74;;;;;;;;;;359170;148;864884;-58
2021/07/05 01:29:02;;;;;;;8.51;6.13;;;;;;;;;;358629;149;857408;-58
2021/07/05 01:30:05;;;;;;;9.34;6.45;;;;;;;;;;358885;148;857275;-59
2021/07/05 01:31:06;;;;;;;10.37;6.17;;;;;;;;;;357005;148;858678;-58
2021/07/05 01:32:08;;;;;;;8.14;6.09;;;;;;;;;;358442;150;859344;-59
2021/07/05 01:33:10;;;;;;;7.84;6.10;;;;;;;;;;359564;148;857353;-58
2021/07/05 01:34:11;;;;;;;7.02;6.27;;;;;;;;;;357701;148;864834;-58
2021/07/05 01:35:13;;;;;;;6.99;5.90;;;;;;;;;;358650;147;857328;-58
2021/07/05 01:36:17;;;;;;;8.91;6.34;;;;;;;;;;358002;150;857183;-59
2021/07/05 01:37:18;;;;;;;9.79;6.25;;;;;;;;;;358495;148;858721;-60
2021/07/05 01:38:20;;;;;;;9.46;6.26;;;;;;;;;;359058;147;857423;-60
2021/07/05 01:39:22;;;;;;;8.61;6.95;;;;;;;;;;358033;150;857495;-59
2021/07/05 01:40:25;;;;;;;9.36;6.58;;;;;;;;;;357559;148;857393;-60
2021/07/05 01:41:27;;;;;;;9.56;6.24;;;;;;;;;;358305;148;857149;-60
2021/07/05 01:42:28;;;;;;;10.21;6.69;;;;;;;;;;358625;148;857353;-60
2021/07/05 01:43:30;;;;;;;8.33;6.31;;;;;;;;;;358648;149;857326;-59
2021/07/05 01:44:31;;;;;;;12.90;6.64;;;;;;;;;;359752;148;857158;-60
2021/07/05 01:45:33;;;;;;;8.73;6.44;;;;;;;;;;358546;147;857158;-60
2021/07/05 01:46:35;;;;;;;12.59;6.53;;;;;;;;;;358791;150;858793;-61
2021/07/05 01:47:37;;;;;;;7.95;6.48;;;;;;;;;;358172;148;858946;-60
2021/07/05 01:48:38;;;;;;;12.06;6.57;;;;;;;;;;356302;148;865414;-59
2021/07/05 01:49:44;;;;;;;7.96;5.98;;;;;;;;;;357196;148;857442;-59
2021/07/05 01:50:44;;;;;;;10.61;6.89;;;;;;;;;;357230;150;857271;-59
2021/07/05 01:51:45;;;;;;;8.91;6.66;;;;;;;;;;358391;147;865971;-60
2021/07/05 01:52:47;;;;;;;11.09;6.91;;;;;;;;;;358808;147;859034;-61
2021/07/05 01:53:48;;;;;;;8.44;7.03;;;;;;;;;;359085;147;858354;-60
2021/07/05 01:54:50;;;;;;;7.48;6.68;;;;;;;;;;358416;148;865016;-60
2021/07/05 01:55:53;;;;;;;9.07;6.37;;;;;;;;;;358202;148;857218;-60
2021/07/05 01:56:54;;;;;;;15.74;7.08;;;;;;;;;;358782;147;857062;-60
2021/07/05 01:57:56;;;;;;;8.36;7.23;;;;;;;;;;358724;147;857311;-59
2021/07/05 01:58:58;;;;;;;8.57;6.73;;;;;;;;;;359026;148;858855;-60
2021/07/05 02:00:00;;;;;;;11.27;6.95;;;;;;;;;;358194;148;857173;-60
2021/07/05 02:01:02;;;;;;;7.33;6.59;;;;;;;;;;358506;148;859445;-60
2021/07/05 02:02:08;;;;;;;9.61;7.12;;;;;;;;;;356968;148;858779;-60
2021/07/05 02:03:07;;;;;;;7.78;6.63;;;;;;;;;;354120;149;860189;-60
2021/07/05 02:04:09;;;;;;;9.31;7.06;;;;;;;;;;357609;149;857841;-60
2021/07/05 02:05:12;;;;;;;12.11;7.29;;;;;;;;;;356907;149;859905;-59
2021/07/05 02:06:15;;;;;;;9.12;6.79;;;;;;;;;;355441;149;858230;-59
2021/07/05 02:07:17;;;;;;;8.55;7.09;;;;;;;;;;354033;149;865067;-60
2021/07/05 02:08:19;;;;;;;13.26;7.03;;;;;;;;;;353084;151;866439;-59
2021/07/05 02:09:20;;;;;;;12.24;7.02;;;;;;;;;;351983;150;858868;-59
2021/07/05 02:10:24;;;;;;;7.51;6.76;;;;;;;;;;355748;149;866328;-59
2021/07/05 02:11:25;;;;;;;9.44;6.95;;;;;;;;;;352939;149;858741;-59
2021/07/05 02:12:27;;;;;;;10.95;6.83;;;;;;;;;;356862;148;859592;-59
2021/07/05 02:13:29;;;;;;;10.15;7.17;;;;;;;;;;356276;148;857262;-59
2021/07/05 02:14:30;;;;;;;10.59;7.17;;;;;;;;;;355778;149;857203;-60
2021/07/05 02:15:32;;;;;;;8.12;7.05;;;;;;;;;;355551;148;857653;-59
2021/07/05 02:16:35;;;;;;;10.20;7.47;;;;;;;;;;353525;150;857160;-59
2021/07/05 02:17:36;;;;;;;8.21;7.23;;;;;;;;;;354765;149;858891;-59
2021/07/05 02:18:39;;;;;;;8.61;7.36;;;;;;;;;;356461;148;864821;-59
2021/07/05 02:19:41;;;;;;;14.64;7.72;;;;;;;;;;356435;151;857289;-59
2021/07/05 02:20:44;;;;;;;12.81;7.41;;;;;;;;;;355228;150;857401;-59
2021/07/05 02:21:46;;;;;;;9.66;7.05;;;;;;;;;;353891;148;860785;-59
2021/07/05 02:22:51;;;;;;;10.48;6.87;;;;;;;;;;356554;151;865836;-60
2021/07/05 02:23:53;;;;;;;9.49;6.71;;;;;;;;;;354682;148;857783;-60
2021/07/05 02:24:55;;;;;;;8.42;7.15;;;;;;;;;;357016;149;857208;-59
2021/07/05 02:25:56;;;;;;;11.15;7.44;;;;;;;;;;353317;149;857434;-59
2021/07/05 02:26:58;;;;;;;8.42;6.41;;;;;;;;;;355557;151;857212;-60
2021/07/05 02:28:00;;;;;;;9.32;6.95;;;;;;;;;;356624;149;865054;-60
2021/07/05 02:29:02;;;;;;;10.07;7.07;;;;;;;;;;356295;149;857176;-60
2021/07/05 02:30:05;;;;;;;8.93;6.96;;;;;;;;;;355015;150;866721;-60
2021/07/05 02:31:06;;;;;;;7.81;7.01;;;;;;;;;;354124;149;857700;-59
2021/07/05 02:32:08;;;;;;;9.92;7.06;;;;;;;;;;356189;148;859112;-59
2021/07/05 02:33:10;;;;;;;11.67;7.19;;;;;;;;;;358623;149;865209;-59
2021/07/05 02:34:11;;;;;;;12.11;7.15;;;;;;;;;;354396;150;857229;-59
2021/07/05 02:35:13;;;;;;;12.18;7.24;;;;;;;;;;354743;150;864900;-59
2021/07/05 02:36:17;;;;;;;8.61;6.85;;;;;;;;;;354728;149;857227;-60
2021/07/05 02:37:18;;;;;;;16.36;7.77;;;;;;;;;;353278;151;859550;-60
2021/07/05 02:38:20;;;;;;;7.99;7.14;;;;;;;;;;356462;150;859055;-60
2021/07/05 02:39:22;;;;;;;9.93;8.01;;;;;;;;;;355581;149;858342;-59
2021/07/05 02:40:24;;;;;;;9.17;7.53;;;;;;;;;;357826;148;859132;-60
2021/07/05 02:41:26;;;;;;;11.65;7.84;;;;;;;;;;356205;149;858295;-59
2021/07/05 02:42:27;;;;;;;9.81;7.64;;;;;;;;;;355137;149;858524;-59
2021/07/05 02:43:29;;;;;;;8.69;7.04;;;;;;;;;;356541;149;857183;-59
2021/07/05 02:44:30;;;;;;;12.63;8.12;;;;;;;;;;356200;151;857153;-59
2021/07/05 02:45:32;;;;;;;12.55;7.33;;;;;;;;;;354868;150;857198;-60
2021/07/05 02:46:34;;;;;;;11.33;7.94;;;;;;;;;;355801;149;857749;-60
2021/07/05 02:47:36;;;;;;;9.72;6.98;;;;;;;;;;358799;150;857383;-60
2021/07/05 02:48:38;;;;;;;10.99;7.80;;;;;;;;;;355240;149;857206;-59
2021/07/05 02:49:40;;;;;;;12.28;7.84;;;;;;;;;;354831;149;857351;-60
2021/07/05 02:50:42;;;;;;;13.49;7.36;;;;;;;;;;354673;148;857339;-59
2021/07/05 02:51:44;;;;;;;8.01;7.22;;;;;;;;;;353610;149;864960;-59
2021/07/05 02:52:45;;;;;;;9.86;7.04;;;;;;;;;;354068;150;857432;-59
2021/07/05 02:53:47;;;;;;;14.01;7.75;;;;;;;;;;356685;149;859005;-58
2021/07/05 02:54:49;;;;;;;10.94;7.19;;;;;;;;;;351467;152;858974;-59
2021/07/05 02:55:50;;;;;;;15.17;7.61;;;;;;;;;;348111;152;858729;-59
2021/07/05 02:56:52;;;;;;;11.16;7.34;;;;;;;;;;347789;152;866476;-59
2021/07/05 02:57:53;;;;;;;9.13;7.34;;;;;;;;;;349649;152;864847;-60
2021/07/05 02:58:55;;;;;;;10.23;7.29;;;;;;;;;;348201;152;859306;-59
2021/07/05 03:00:01;;;;;;;11.41;8.16;;;;;;;;;;348011;152;857320;-59
2021/07/05 03:01:03;;;;;;;9.56;7.31;;;;;;;;;;349313;152;865014;-59
2021/07/05 03:02:04;;;;;;;11.08;7.74;;;;;;;;;;349228;153;858060;-60
2021/07/05 03:03:06;;;;;;;13.72;7.44;;;;;;;;;;349860;152;859028;-59
2021/07/05 03:04:08;;;;;;;9.34;7.26;;;;;;;;;;357026;148;857272;-59
2021/07/05 03:05:10;;;;;;;12.36;7.36;;;;;;;;;;358789;148;864991;-60
2021/07/05 03:06:12;;;;;;;10.45;8.03;;;;;;;;;;358704;147;857704;-60
2021/07/05 03:07:16;;;;;;;9.50;7.05;;;;;;;;;;357819;148;865693;-59
2021/07/05 03:08:17;;;;;;;11.09;7.68;;;;;;;;;;359051;147;857362;-59
2021/07/05 03:09:18;;;;;;;9.32;7.63;;;;;;;;;;360146;147;859524;-60
2021/07/05 03:10:22;;;;;;;8.91;7.19;;;;;;;;;;359372;147;865207;-59
2021/07/05 03:11:24;;;;;;;10.40;7.61;;;;;;;;;;357002;148;864818;-60
2021/07/05 03:12:25;;;;;;;14.69;8.59;;;;;;;;;;359393;147;859152;-60
2021/07/05 03:13:27;;;;;;;9.61;7.70;;;;;;;;;;357004;149;859655;-60
2021/07/05 03:14:28;;;;;;;8.44;7.54;;;;;;;;;;359724;148;858130;-61
2021/07/05 03:15:30;;;;;;;9.26;7.32;;;;;;;;;;359288;148;857303;-60
2021/07/05 03:16:32;;;;;;;11.23;7.81;;;;;;;;;;359060;147;857256;-60
2021/07/05 03:17:34;;;;;;;12.16;8.35;;;;;;;;;;359467;149;857187;-61
2021/07/05 03:18:35;;;;;;;13.60;8.27;;;;;;;;;;359681;148;857437;-61
2021/07/05 03:19:37;;;;;;;10.21;7.55;;;;;;;;;;356898;148;857331;-60
2021/07/05 03:20:43;;;;;;;11.07;8.01;;;;;;;;;;358588;147;858973;-60
2021/07/05 03:21:44;;;;;;;12.67;8.26;;;;;;;;;;358621;148;864944;-61
2021/07/05 03:22:46;;;;;;;11.65;8.09;;;;;;;;;;357641;148;859168;-60
2021/07/05 03:23:48;;;;;;;11.99;8.00;;;;;;;;;;354590;148;865057;-60
2021/07/05 03:24:50;;;;;;;11.88;8.08;;;;;;;;;;357901;150;857226;-61
2021/07/05 03:25:52;;;;;;;10.78;8.30;;;;;;;;;;358106;147;857326;-60
2021/07/05 03:26:54;;;;;;;12.85;8.18;;;;;;;;;;357154;148;857260;-61
2021/07/05 03:27:55;;;;;;;13.82;8.11;;;;;;;;;;359163;150;864969;-60
2021/07/05 03:28:57;;;;;;;8.81;7.74;;;;;;;;;;358791;148;857282;-60
2021/07/05 03:29:58;;;;;;;11.42;7.76;;;;;;;;;;357248;148;859127;-60
2021/07/05 03:31:00;;;;;;;12.00;8.21;;;;;;;;;;357683;147;858680;-60
2021/07/05 03:32:02;;;;;;;15.09;8.56;;;;;;;;;;359228;150;866401;-60
2021/07/05 03:33:04;;;;;;;9.58;8.09;;;;;;;;;;358101;148;859285;-60
2021/07/05 03:34:05;;;;;;;9.35;8.23;;;;;;;;;;356760;147;858482;-61
2021/07/05 03:35:08;;;;;;;13.61;8.31;;;;;;;;;;358838;148;865013;-60
2021/07/05 03:36:11;;;;;;;12.34;8.04;;;;;;;;;;358773;148;857287;-61
2021/07/05 03:37:13;;;;;;;8.99;7.91;;;;;;;;;;358315;148;858909;-61
2021/07/05 03:38:16;;;;;;;14.11;8.55;;;;;;;;;;356806;148;857244;-60
2021/07/05 03:39:17;;;;;;;9.97;7.78;;;;;;;;;;358733;149;857465;-59
2021/07/05 03:40:23;;;;;;;12.56;8.11;;;;;;;;;;358832;147;858962;-60
2021/07/05 03:41:25;;;;;;;11.22;8.18;;;;;;;;;;356194;147;866603;-60
2021/07/05 03:42:26;;;;;;;8.66;7.24;;;;;;;;;;357621;150;859076;-60
2021/07/05 03:43:28;;;;;;;11.86;7.46;;;;;;;;;;359337;148;859777;-60
2021/07/05 03:44:30;;;;;;;12.26;7.83;;;;;;;;;;356853;148;857339;-60
2021/07/05 03:45:32;;;;;;;10.71;7.21;;;;;;;;;;357081;147;858831;-60
2021/07/05 03:46:36;;;;;;;9.11;6.88;;;;;;;;;;356993;149;858206;-61
2021/07/05 03:47:37;;;;;;;11.32;6.86;;;;;;;;;;358775;148;866113;-60
2021/07/05 03:48:39;;;;;;;9.76;7.45;;;;;;;;;;357217;148;864984;-59
2021/07/05 03:49:40;;;;;;;9.14;7.82;;;;;;;;;;358064;150;857340;-60
2021/07/05 03:50:44;;;;;;;12.31;7.33;;;;;;;;;;355677;148;857311;-60
2021/07/05 03:51:46;;;;;;;9.94;7.37;;;;;;;;;;357786;148;858569;-63
2021/07/05 03:52:47;;;;;;;10.99;7.65;;;;;;;;;;357844;147;857270;-62
2021/07/05 03:53:49;;;;;;;15.38;7.86;;;;;;;;;;358800;147;857364;-62
2021/07/05 03:54:50;;;;;;;10.73;7.11;;;;;;;;;;358475;148;864867;-61
2021/07/05 03:55:52;;;;;;;8.54;6.69;;;;;;;;;;358702;147;857183;-64
2021/07/05 03:56:54;;;;;;;11.09;7.15;;;;;;;;;;363382;147;857283;-65
2021/07/05 03:57:55;;;;;;;11.01;7.96;;;;;;;;;;358866;148;864939;-63
2021/07/05 03:58:57;;;;;;;8.15;7.05;;;;;;;;;;358836;148;867770;-62
2021/07/05 03:59:58;;;;;;;10.40;7.41;;;;;;;;;;358002;147;859009;-61
2021/07/05 04:01:00;;;;;;;10.58;7.31;;;;;;;;;;358657;150;857804;-61
2021/07/05 04:02:02;;;;;;;8.71;7.77;;;;;;;;;;358467;148;857728;-60
2021/07/05 04:03:04;;;;;;;7.86;6.94;;;;;;;;;;355047;148;857241;-60
2021/07/05 04:04:05;;;;;;;13.39;7.26;;;;;;;;;;354977;150;865249;-61
2021/07/05 04:05:07;;;;;;;13.78;7.68;;;;;;;;;;355020;151;865877;-61
2021/07/05 04:06:09;;;;;;;7.65;6.91;;;;;;;;;;353253;148;857418;-59
2021/07/05 04:07:11;;;;;;;8.13;7.31;;;;;;;;;;357361;149;858460;-58
2021/07/05 04:08:13;;;;;;;10.61;7.61;;;;;;;;;;355156;149;857380;-60
2021/07/05 04:09:16;;;;;;;12.29;7.06;;;;;;;;;;353437;148;857319;-61
2021/07/05 04:10:19;;;;;;;10.72;7.49;;;;;;;;;;354916;149;857482;-61
2021/07/05 04:11:20;;;;;;;11.81;7.21;;;;;;;;;;355728;150;859451;-63
2021/07/05 04:12:22;;;;;;;9.11;7.27;;;;;;;;;;351309;150;867203;-60
2021/07/05 04:13:26;;;;;;;9.63;7.61;;;;;;;;;;354679;149;859094;-59
2021/07/05 04:14:27;;;;;;;9.99;7.59;;;;;;;;;;354574;149;859180;-59
2021/07/05 04:15:29;;;;;;;10.57;7.47;;;;;;;;;;355616;149;857259;-61
2021/07/05 04:16:30;;;;;;;11.88;7.24;;;;;;;;;;355029;149;858599;-60
2021/07/05 04:17:32;;;;;;;10.77;7.06;;;;;;;;;;354150;149;865632;-61
2021/07/05 04:18:33;;;;;;;10.69;7.54;;;;;;;;;;351410;150;857496;-61
2021/07/05 04:19:35;;;;;;;10.96;7.55;;;;;;;;;;353059;148;857263;-61
2021/07/05 04:20:38;;;;;;;12.43;8.51;;;;;;;;;;352977;150;857305;-62
2021/07/05 04:21:39;;;;;;;10.90;7.52;;;;;;;;;;354715;149;864984;-60
2021/07/05 04:22:41;;;;;;;10.23;7.84;;;;;;;;;;354434;148;865053;-61
2021/07/05 04:23:42;;;;;;;8.20;7.36;;;;;;;;;;355373;149;857237;-61
2021/07/05 04:24:44;;;;;;;9.55;7.64;;;;;;;;;;354430;149;865049;-60
2021/07/05 04:25:46;;;;;;;11.86;7.53;;;;;;;;;;354779;149;857829;-61
2021/07/05 04:26:49;;;;;;;11.26;7.53;;;;;;;;;;354528;149;858531;-61
2021/07/05 04:27:51;;;;;;;9.13;7.49;;;;;;;;;;353906;149;866022;-62
2021/07/05 04:28:52;;;;;;;9.97;7.30;;;;;;;;;;355912;149;858688;-61
2021/07/05 04:29:54;;;;;;;10.51;8.09;;;;;;;;;;355565;148;859846;-62
2021/07/05 04:30:56;;;;;;;9.49;7.63;;;;;;;;;;350339;152;857804;-62
2021/07/05 04:31:58;;;;;;;12.11;7.29;;;;;;;;;;348413;151;859163;-61
2021/07/05 04:32:59;;;;;;;9.88;7.91;;;;;;;;;;354198;149;865018;-62
2021/07/05 04:34:01;;;;;;;8.76;7.83;;;;;;;;;;354518;148;857313;-61
2021/07/05 04:35:03;;;;;;;10.41;7.79;;;;;;;;;;355018;148;859028;-62
2021/07/05 04:36:05;;;;;;;9.67;8.23;;;;;;;;;;354613;149;857683;-61
2021/07/05 04:37:06;;;;;;;12.40;8.00;;;;;;;;;;354155;148;859089;-63
2021/07/05 04:38:08;;;;;;;8.71;7.43;;;;;;;;;;352147;148;857934;-63
2021/07/05 04:39:09;;;;;;;8.64;7.44;;;;;;;;;;354510;149;857350;-65
2021/07/05 04:40:12;;;;;;;14.40;8.16;;;;;;;;;;353674;149;857232;-64
2021/07/05 04:41:14;;;;;;;11.59;7.79;;;;;;;;;;354217;149;864868;-61
2021/07/05 04:42:15;;;;;;;10.48;7.64;;;;;;;;;;353619;148;865200;-62
2021/07/05 04:43:17;;;;;;;10.88;7.75;;;;;;;;;;355340;149;857414;-62
2021/07/05 04:44:19;;;;;;;8.94;7.96;;;;;;;;;;355295;148;857481;-62
2021/07/05 04:45:21;;;;;;;13.54;8.44;;;;;;;;;;354351;149;859491;-64
2021/07/05 04:46:24;;;;;;;10.35;8.04;;;;;;;;;;354394;149;865061;-67
2021/07/05 04:47:25;;;;;;;9.56;7.47;;;;;;;;;;355235;149;859804;-65
2021/07/05 04:48:27;;;;;;;12.16;8.01;;;;;;;;;;353126;150;858277;-63
2021/07/05 04:49:29;;;;;;;14.26;8.13;;;;;;;;;;354579;148;857260;-65
2021/07/05 04:50:31;;;;;;;10.25;7.69;;;;;;;;;;355932;149;857233;-65
2021/07/05 04:51:32;;;;;;;10.27;7.39;;;;;;;;;;352647;151;857290;-64
2021/07/05 04:52:54;;;;;;;10.06;7.76;;;;;;;;;;353874;149;857395;-60
2021/07/05 04:53:55;;;;;;;13.18;7.86;;;;;;;;;;354047;149;865729;-61
2021/07/05 04:54:57;;;;;;;13.71;7.88;;;;;;;;;;352921;150;859022;-62
2021/07/05 04:55:58;;;;;;;8.93;7.26;;;;;;;;;;354324;150;857772;-63
2021/07/05 04:57:00;;;;;;;9.90;7.66;;;;;;;;;;354963;149;857235;-65
2021/07/05 04:58:02;;;;;;;13.21;7.85;;;;;;;;;;355175;149;865029;-62
2021/07/05 04:59:03;;;;;;;12.73;7.68;;;;;;;;;;351402;151;858250;-63
2021/07/05 05:00:06;;;;;;;10.57;7.99;;;;;;;;;;350829;150;865136;-65
2021/07/05 05:20:32;;;;;;;12.67;8.34;;;;;;;23.57;66.54;99065.37;369256;142;878563;-61
2021/07/05 05:21:34;;;;;;;9.56;8.36;;;;;;;23.53;66.26;99071.02;364247;147;858002;-61
2021/07/05 05:22:36;;;;;;;10.73;7.74;;;;;;;23.57;66.63;99067.19;363325;146;864928;-62
2021/07/05 05:23:39;;;;;;;12.62;7.91;;;;;;;23.64;66.63;99061.30;360102;146;858708;-61
2021/07/05 05:24:40;;;;;;;15.46;8.09;;;;;;;23.72;66.41;99068.64;364641;147;857274;-62
2021/07/05 05:25:42;;;;;;;10.47;8.47;;;;;;;23.82;66.51;99068.76;361867;147;865543;-62
2021/07/05 05:26:46;;;;;;;9.79;7.85;;;;;;;23.91;65.40;99070.72;363440;147;859139;-61
2021/07/05 05:27:48;;;;;;;10.84;8.82;;;;;;;23.98;65.18;99071.06;362142;147;857247;-62
2021/07/05 05:28:50;;;;;;;9.69;8.29;;;;;;;23.88;64.45;99072.74;361346;147;865585;-61
2021/07/05 05:29:52;;;;;;;13.49;8.75;;;;;;;23.84;64.54;99105.66;363810;146;858205;-61
2021/07/05 05:30:54;;;;;;;9.51;8.33;;;;;;;23.80;64.62;99073.33;359483;147;857212;-62
2021/07/05 05:31:55;;;;;;;15.88;8.31;;;;;;;23.73;64.83;99072.11;359527;147;857274;-62
2021/07/05 05:32:57;;;;;;;9.34;7.91;;;;;;;23.73;64.93;99072.97;363910;146;864915;-61
2021/07/05 05:33:59;;;;;;;14.61;8.52;;;;;;;23.78;65.34;99073.45;360313;146;865049;-62
2021/07/05 05:35:01;;;;;;;11.69;8.13;;;;;;;23.82;64.99;99070.58;364139;147;864899;-64
2021/07/05 05:36:04;;;;;;;26.20;20.75;;;;;;;23.84;65.15;99068.66;364503;147;864873;-62
2021/07/05 05:37:06;;;;;;;124.67;83.61;;;;;;;23.87;65.36;99071.06;363017;146;859588;-63
2021/07/05 05:38:07;;;;;;;12.77;10.02;;;;;;;23.92;65.05;99071.55;361676;147;857378;-62
2021/07/05 05:39:09;;;;;;;13.64;9.32;;;;;;;23.97;64.96;99074.67;364802;147;857298;-63
2021/07/05 05:40:12;;;;;;;10.57;8.80;;;;;;;23.97;64.20;99079.95;362335;146;864822;-63
2021/07/05 05:41:14;;;;;;;11.77;8.15;;;;;;;23.97;64.20;99079.95;360706;147;857240;-63
2021/07/05 05:42:16;;;;;;;10.53;8.39;;;;;;;23.96;64.47;99070.34;362364;147;857374;-64
2021/07/05 05:43:18;;;;;;;9.99;8.31;;;;;;;23.99;64.56;99067.46;364729;147;860609;-62
2021/07/05 05:44:19;;;;;;;10.85;8.49;;;;;;;24.03;64.60;99068.11;363896;146;866380;-63
2021/07/05 05:45:21;;;;;;;11.21;9.07;;;;;;;24.09;64.62;99069.41;361010;147;866458;-63
2021/07/05 05:46:24;;;;;;;14.54;8.93;;;;;;;24.14;64.68;99069.89;360063;147;860246;-62
2021/07/05 05:47:27;;;;;;;15.26;8.43;;;;;;;24.14;63.72;99073.39;361920;146;857417;-63
2021/07/05 05:48:29;;;;;;;10.15;7.77;;;;;;;;;;363261;146;858972;-62
2021/07/05 05:49:30;;;;;;;12.31;8.59;;;;;;;;;;363052;147;866888;-63
2021/07/05 05:50:32;;;;;;;15.62;8.44;;;;;;;;;;362046;146;858386;-63
2021/07/05 05:51:35;;;;;;;16.39;9.54;;;;;;;;;;363273;147;858863;-62
2021/07/05 05:52:37;;;;;;;10.10;7.84;;;;;;;;;;364622;147;857329;-62
2021/07/05 05:53:39;;;;;;;9.41;7.51;;;;;;;;;;365034;146;858671;-62
2021/07/05 05:54:40;;;;;;;10.91;8.08;;;;;;;;;;363525;146;857393;-61
2021/07/05 05:55:45;;;;;;;16.39;8.58;;;;;;;;;;364734;147;857293;-62
2021/07/05 05:56:51;;;;;;;13.36;8.31;;;;;;;;;;365540;147;857370;-61
2021/07/05 05:57:49;;;;;;;23.22;13.42;;;;;;;;;;361347;147;865878;-63
2021/07/05 05:58:51;;;;;;;17.19;13.92;;;;;;;;;;364038;146;858398;-61